createdAt,value
2024-01-20T00:02:11.712Z,6.57
2024-01-20T00:04:44.249Z,8.88
2024-01-20T00:07:17.046Z,5.93
2024-01-20T00:12:28.167Z,7.53
2024-01-20T00:15:28.241Z,4.88
2024-01-20T00:18:03.898Z,11.18
2024-01-20T00:20:50.035Z,7.82
2024-01-20T00:23:36.937Z,6.75
2024-01-20T00:26:18.358Z,5.15
2024-01-20T00:28:49.563Z,8.13
2024-01-20T00:31:26.535Z,9.20
2024-01-20T00:34:02.827Z,6.60
2024-01-20T00:36:36.315Z,11.02
2024-01-20T00:39:14.876Z,6.68
2024-01-20T00:41:51.581Z,10.40
2024-01-20T00:44:20.786Z,7.70
2024-01-20T00:46:57.690Z,10.80
2024-01-20T00:49:37.361Z,8.65
2024-01-20T00:52:17.652Z,9.70
2024-01-20T00:54:48.882Z,7.57
2024-01-20T00:57:28.107Z,11.75
2024-01-20T01:00:22.478Z,10.30
2024-01-20T01:03:04.067Z,11.50
2024-01-20T01:05:42.969Z,10.73
2024-01-20T01:08:17.837Z,9.57
2024-01-20T01:11:07.723Z,15.55
2024-01-20T01:13:46.788Z,8.10
2024-01-20T01:16:23.474Z,21.40
2024-01-20T01:22:41.411Z,4.90
2024-01-20T01:25:30.707Z,10.77
2024-01-20T01:28:03.016Z,8.18
2024-01-20T01:30:41.051Z,11.23
2024-01-20T01:33:17.202Z,7.78
2024-01-20T01:35:51.557Z,12.10
2024-01-20T01:38:50.311Z,12.50
2024-01-20T01:44:42.362Z,4.80
2024-01-20T01:47:20.068Z,9.68
2024-01-20T01:49:56.778Z,4.40
2024-01-20T01:52:37.011Z,8.15
2024-01-20T01:55:20.811Z,6.15
2024-01-20T01:57:59.906Z,8.35
2024-01-20T02:00:34.676Z,6.82
2024-01-20T02:03:25.870Z,4.93
2024-01-20T02:06:10.348Z,2.72
2024-01-20T02:09:05.325Z,5.32
2024-01-20T02:11:48.805Z,4.50
2024-01-20T02:14:28.589Z,5.95
2024-01-20T02:22:54.402Z,5.75
2024-01-20T02:25:43.681Z,4.20
2024-01-20T02:28:26.233Z,9.25
2024-01-20T02:31:03.352Z,4.68
2024-01-20T02:34:08.506Z,7.85
2024-01-20T02:36:43.529Z,7.25
2024-01-20T02:39:55.420Z,7.13
2024-01-20T02:43:16.941Z,7.32
2024-01-20T02:49:09.663Z,5.93
2024-01-20T02:52:13.122Z,3.97
2024-01-20T02:57:52.853Z,6.10
2024-01-20T03:00:33.214Z,4.80
2024-01-20T03:03:07.346Z,7.70
2024-01-20T03:08:41.025Z,9.13
2024-01-20T03:14:04.706Z,5.55
2024-01-20T03:16:35.700Z,6.82
2024-01-20T03:19:11.173Z,4.97
2024-01-20T03:24:47.085Z,5.70
2024-01-20T03:31:31.797Z,10.30
2024-01-20T03:34:30.507Z,4.03
2024-01-20T03:37:32.869Z,13.75
2024-01-20T03:40:39.078Z,10.82
2024-01-20T03:43:15.349Z,5.00
2024-01-20T03:46:02.346Z,3.05
2024-01-20T03:48:53.931Z,4.78
2024-01-20T03:52:01.817Z,9.32
2024-01-20T03:54:54.306Z,4.50
2024-01-20T03:57:31.699Z,3.75
2024-01-20T04:00:00.613Z,7.18
2024-01-20T04:02:40.009Z,3.80
2024-01-20T04:05:26.265Z,5.72
2024-01-20T04:08:09.910Z,4.18
2024-01-20T04:10:48.945Z,2.95
2024-01-20T04:13:32.884Z,4.57
2024-01-20T04:16:19.649Z,4.97
2024-01-20T04:19:13.838Z,6.57
2024-01-20T04:21:48.623Z,4.15
2024-01-20T04:24:38.090Z,5.30
2024-01-20T04:27:16.767Z,4.45
2024-01-20T04:29:58.139Z,3.22
2024-01-20T04:32:34.618Z,5.38
2024-01-20T04:35:06.504Z,2.50
2024-01-20T04:37:50.070Z,2.85
2024-01-20T04:40:31.267Z,4.20
2024-01-20T04:43:26.371Z,3.95
2024-01-20T04:46:07.346Z,7.38
2024-01-20T04:48:47.366Z,6.90
2024-01-20T04:51:34.262Z,3.03
2024-01-20T04:54:15.658Z,3.58
2024-01-20T04:56:56.968Z,2.92
2024-01-20T04:59:56.639Z,5.97
2024-01-20T05:02:36.188Z,3.17
2024-01-20T05:05:10.698Z,3.50
2024-01-20T05:08:28.330Z,3.10
2024-01-20T05:11:01.189Z,5.75
2024-01-20T05:13:33.742Z,2.75
2024-01-20T05:16:10.467Z,3.92
2024-01-20T05:21:33.783Z,3.47
2024-01-20T05:24:14.818Z,4.53
2024-01-20T05:26:50.539Z,2.67
2024-01-20T05:29:29.085Z,3.60
2024-01-20T05:32:26.238Z,2.28
2024-01-20T05:35:04.770Z,5.07
2024-01-20T05:38:00.299Z,5.50
2024-01-20T05:40:38.465Z,2.92
2024-01-20T05:43:38.937Z,2.13
2024-01-20T05:46:16.292Z,3.08
2024-01-20T05:48:57.681Z,2.78
2024-01-20T05:51:53.228Z,3.55
2024-01-20T05:57:16.748Z,7.20
2024-01-20T06:00:02.330Z,2.70
2024-01-20T06:03:02.722Z,3.17
2024-01-20T06:06:12.282Z,5.38
2024-01-20T06:08:43.040Z,3.17
2024-01-20T06:11:14.835Z,4.07
2024-01-20T06:13:51.264Z,9.10
2024-01-20T06:16:32.944Z,5.65
2024-01-20T06:22:31.542Z,4.00
2024-01-20T06:25:11.045Z,6.93
2024-01-20T06:30:48.627Z,6.95
2024-01-20T06:36:28.185Z,4.20
2024-01-20T06:42:41.767Z,3.40
2024-01-20T06:45:28.627Z,3.50
2024-01-20T06:51:04.850Z,5.20
2024-01-20T06:53:42.044Z,4.72
2024-01-20T06:56:19.375Z,6.53
2024-01-20T06:58:58.981Z,6.85
2024-01-20T07:04:37.701Z,3.65
2024-01-20T07:07:50.214Z,14.13
2024-01-20T07:10:25.246Z,11.88
2024-01-20T07:13:14.639Z,6.82
2024-01-20T07:15:47.506Z,4.85
2024-01-20T07:18:39.056Z,5.43
2024-01-20T07:21:14.598Z,5.03
2024-01-20T07:24:12.524Z,6.50
2024-01-20T07:30:04.838Z,7.22
2024-01-20T07:32:51.403Z,7.90
2024-01-20T07:37:53.228Z,9.82
2024-01-20T07:40:32.649Z,7.65
2024-01-20T07:43:22.831Z,5.97
2024-01-20T07:45:57.579Z,7.07
2024-01-20T07:48:33.789Z,10.25
2024-01-20T07:51:03.362Z,9.77
2024-01-20T07:53:49.011Z,12.85
2024-01-20T07:56:22.622Z,10.68
2024-01-20T07:59:08.107Z,11.10
2024-01-20T08:01:53.857Z,7.97
2024-01-20T08:04:29.629Z,7.88
2024-01-20T08:07:02.055Z,7.57
2024-01-20T08:09:36.941Z,11.98
2024-01-20T08:12:11.017Z,11.32
2024-01-20T08:14:43.890Z,14.40
2024-01-20T08:17:19.250Z,10.27
2024-01-20T08:19:51.247Z,12.27
2024-01-20T08:22:29.916Z,17.08
2024-01-20T08:25:04.430Z,16.88
2024-01-20T08:27:33.952Z,22.15
2024-01-20T08:30:15.448Z,19.25
2024-01-20T08:33:00.430Z,28.13
2024-01-20T08:38:48.148Z,19.55
2024-01-20T08:41:21.980Z,32.05
2024-01-20T08:43:56.805Z,15.55
2024-01-20T08:46:34.663Z,14.18
2024-01-20T08:49:31.900Z,18.08
2024-01-20T08:52:31.166Z,16.83
2024-01-20T08:55:26.462Z,19.27
2024-01-20T08:57:57.581Z,12.40
2024-01-20T09:01:01.223Z,14.95
2024-01-20T09:03:59.219Z,12.43
2024-01-20T09:06:35.763Z,11.35
2024-01-20T09:09:44.945Z,9.10
2024-01-20T09:12:24.207Z,6.30
2024-01-20T09:15:00.147Z,6.38
2024-01-20T09:20:29.732Z,4.03
2024-01-20T09:23:07.881Z,3.85
2024-01-20T09:25:36.586Z,4.68
2024-01-20T09:28:16.726Z,7.78
2024-01-20T09:30:49.466Z,6.05
2024-01-20T09:33:23.262Z,3.22
2024-01-20T09:35:59.139Z,6.00
2024-01-20T09:38:48.236Z,6.97
2024-01-20T09:41:29.938Z,5.15
2024-01-20T09:44:17.742Z,8.20
2024-01-20T09:52:47.142Z,6.07
2024-01-20T09:55:19.506Z,5.40
2024-01-20T10:00:16.064Z,6.03
2024-01-20T10:02:45.576Z,4.45
2024-01-20T10:05:14.422Z,6.38
2024-01-20T10:07:43.171Z,4.28
2024-01-20T10:10:18.619Z,4.53
2024-01-20T10:12:50.474Z,7.30
2024-01-20T10:15:21.122Z,8.80
2024-01-20T10:17:49.278Z,4.18
2024-01-20T10:20:20.725Z,7.28
2024-01-20T10:22:48.841Z,5.78
2024-01-20T10:25:16.988Z,5.68
2024-01-20T10:27:44.947Z,7.82
2024-01-20T10:30:17.838Z,7.15
2024-01-20T10:36:08.753Z,7.75
2024-01-20T10:39:01.515Z,5.72
2024-01-20T10:41:30.173Z,5.93
2024-01-20T10:44:03.885Z,5.30
2024-01-20T10:46:38.070Z,7.28
2024-01-20T10:49:12.579Z,4.88
2024-01-20T10:51:42.071Z,5.15
2024-01-20T10:54:11.399Z,5.75
2024-01-20T10:56:41.559Z,8.13
2024-01-20T10:59:16.300Z,9.65
2024-01-20T11:01:48.261Z,9.05
2024-01-20T11:04:21.704Z,7.28
2024-01-20T11:06:51.652Z,10.15
2024-01-20T11:09:21.907Z,8.70
2024-01-20T11:12:02.651Z,6.20
2024-01-20T11:14:31.386Z,7.18
2024-01-20T11:17:10.169Z,6.35
2024-01-20T11:19:38.133Z,6.95
2024-01-20T11:22:05.940Z,9.13
2024-01-20T11:24:38.002Z,6.35
2024-01-20T11:27:06.442Z,6.88
2024-01-20T11:29:35.293Z,6.15
2024-01-20T11:32:06.624Z,7.22
2024-01-20T11:34:35.013Z,6.65
2024-01-20T11:37:04.255Z,8.35
2024-01-20T11:39:32.904Z,5.82
2024-01-20T11:42:03.067Z,12.80
2024-01-20T11:44:32.179Z,15.23
2024-01-20T11:47:00.856Z,8.32
2024-01-20T11:49:35.362Z,6.82
2024-01-20T11:52:03.175Z,5.95
2024-01-20T11:54:31.202Z,5.63
2024-01-20T11:56:59.008Z,6.22
2024-01-20T11:59:27.036Z,5.90
2024-01-20T12:01:54.931Z,4.93
2024-01-20T12:04:23.162Z,7.40
2024-01-20T12:06:52.343Z,7.97
2024-01-20T12:09:20.289Z,7.35
2024-01-20T12:11:48.445Z,6.35
2024-01-20T12:14:17.235Z,9.55
2024-01-20T12:16:44.879Z,6.45
2024-01-20T12:19:13.627Z,7.78
2024-01-20T12:21:42.080Z,9.80
2024-01-20T12:24:13.311Z,5.53
2024-01-20T12:27:02.651Z,7.55
2024-01-20T12:32:23.521Z,5.50
2024-01-20T12:35:09.196Z,5.13
2024-01-20T12:40:36.238Z,6.32
2024-01-20T12:46:19.574Z,4.82
2024-01-20T12:49:12.921Z,4.30
2024-01-20T12:54:44.732Z,4.20
2024-01-20T12:57:56.941Z,5.25
2024-01-20T13:00:58.558Z,5.40
2024-01-20T13:03:45.331Z,10.30
2024-01-20T13:06:40.214Z,6.22
2024-01-20T13:09:21.282Z,6.25
2024-01-20T13:17:28.899Z,5.03
2024-01-20T13:20:05.223Z,6.18
2024-01-20T13:22:56.723Z,5.30
2024-01-20T13:28:59.616Z,6.70
2024-01-20T13:34:54.661Z,4.50
2024-01-20T13:37:42.357Z,6.55
2024-01-20T13:43:40.208Z,5.45
2024-01-20T13:46:11.492Z,5.65
2024-01-20T13:48:48.737Z,5.20
2024-01-20T13:51:24.913Z,4.53
2024-01-20T13:54:31.123Z,7.95
2024-01-20T13:57:56.592Z,5.30
2024-01-20T14:00:47.032Z,5.38
2024-01-20T14:03:38.535Z,5.82
2024-01-20T14:12:23.113Z,6.03
2024-01-20T14:25:06.671Z,5.50
2024-01-20T14:27:39.852Z,4.85
2024-01-20T14:30:19.119Z,8.50
2024-01-20T14:32:58.328Z,10.52
2024-01-20T14:35:48.199Z,7.50
2024-01-20T14:38:26.597Z,5.60
2024-01-20T14:44:26.775Z,6.90
2024-01-20T14:47:24.505Z,8.43
2024-01-20T14:50:00.329Z,8.25
2024-01-20T14:52:37.202Z,8.13
2024-01-20T14:55:39.947Z,8.10
2024-01-20T14:58:31.170Z,7.25
2024-01-20T15:01:02.596Z,5.13
2024-01-20T15:06:34.429Z,6.15
2024-01-20T15:09:06.244Z,6.43
2024-01-20T15:11:43.368Z,8.65
2024-01-20T15:14:25.801Z,8.02
2024-01-20T15:16:59.269Z,7.45
2024-01-20T15:19:45.175Z,6.45
2024-01-20T15:22:34.139Z,5.95
2024-01-20T15:25:13.045Z,7.20
2024-01-20T15:27:44.578Z,11.00
2024-01-20T15:30:43.736Z,6.80
2024-01-20T15:33:28.248Z,7.25
2024-01-20T15:36:10.786Z,7.03
2024-01-20T15:38:42.074Z,7.90
2024-01-20T15:41:17.723Z,5.47
2024-01-20T15:43:49.763Z,7.25
2024-01-20T15:46:31.411Z,7.57
2024-01-20T15:49:02.330Z,6.18
2024-01-20T15:51:39.534Z,7.00
2024-01-20T15:54:12.559Z,7.60
2024-01-20T15:57:02.956Z,8.63
2024-01-20T15:59:34.494Z,10.77
2024-01-20T16:02:26.208Z,7.50
2024-01-20T16:05:15.202Z,9.60
2024-01-20T16:07:48.655Z,9.30
2024-01-20T16:10:18.352Z,9.50
2024-01-20T16:12:54.056Z,15.07
2024-01-20T16:15:24.279Z,19.55
2024-01-20T16:18:10.582Z,19.55
2024-01-20T16:20:39.447Z,15.50
2024-01-20T16:23:17.748Z,8.15
2024-01-20T16:25:56.914Z,9.82
2024-01-20T16:28:29.214Z,10.63
2024-01-20T16:31:11.778Z,8.82
2024-01-20T16:33:51.065Z,9.93
2024-01-20T16:36:20.020Z,11.70
2024-01-20T16:38:50.666Z,9.27
2024-01-20T16:41:23.523Z,7.85
2024-01-20T16:43:54.693Z,9.65
2024-01-20T16:46:25.047Z,9.32
2024-01-20T16:49:26.132Z,9.10
2024-01-20T16:52:01.705Z,8.10
2024-01-20T16:54:49.889Z,12.77
2024-01-20T16:57:24.956Z,13.63
2024-01-20T16:59:58.910Z,13.25
2024-01-20T17:02:30.450Z,15.13
2024-01-20T17:05:08.015Z,10.15
2024-01-20T17:07:39.591Z,11.25
2024-01-20T17:10:21.937Z,12.02
2024-01-20T17:12:57.397Z,16.15
2024-01-20T17:15:35.086Z,13.23
2024-01-20T17:18:06.484Z,13.88
2024-01-20T17:20:39.440Z,13.20
2024-01-20T17:23:13.393Z,9.65
2024-01-20T17:25:43.612Z,9.45
2024-01-20T17:28:17.116Z,10.95
2024-01-20T17:33:43.785Z,9.05
2024-01-20T17:36:27.837Z,5.05
2024-01-20T17:39:23.768Z,6.30
2024-01-20T17:41:59.170Z,7.53
2024-01-20T17:44:31.977Z,6.55
2024-01-20T17:47:23.816Z,10.00
2024-01-20T17:49:55.142Z,9.15
2024-01-20T17:52:31.105Z,7.15
2024-01-20T17:55:02.157Z,8.90
2024-01-20T17:57:41.679Z,10.38
2024-01-20T18:00:15.303Z,12.13
2024-01-20T18:02:53.847Z,8.98
2024-01-20T18:05:23.123Z,6.63
2024-01-20T18:08:13.726Z,10.18
2024-01-20T18:10:47.011Z,8.73
2024-01-20T18:13:19.011Z,8.70
2024-01-20T18:15:51.324Z,11.13
2024-01-20T18:18:32.999Z,9.45
2024-01-20T18:21:03.388Z,7.00
2024-01-20T18:23:36.451Z,10.13
2024-01-20T18:26:09.604Z,14.73
2024-01-20T18:28:45.014Z,12.75
2024-01-20T18:31:19.163Z,7.72
2024-01-20T18:33:52.978Z,9.80
2024-01-20T18:36:26.672Z,11.80
2024-01-20T18:38:59.900Z,9.48
2024-01-20T18:41:28.643Z,6.28
2024-01-20T18:44:07.722Z,8.90
2024-01-20T18:49:24.144Z,6.90
2024-01-20T18:52:05.401Z,8.25
2024-01-20T18:54:41.761Z,9.48
2024-01-20T18:57:16.719Z,7.53
2024-01-20T18:59:50.855Z,8.20
2024-01-20T19:02:28.887Z,5.65
2024-01-20T19:05:16.536Z,8.55
2024-01-20T19:07:49.079Z,9.95
2024-01-20T19:10:41.280Z,11.52
2024-01-20T19:13:15.809Z,10.05
2024-01-20T19:15:46.865Z,9.65
2024-01-20T19:18:16.943Z,5.88
2024-01-20T19:20:52.765Z,6.32
2024-01-20T19:23:21.689Z,5.30
2024-01-20T19:25:57.477Z,8.68
2024-01-20T19:28:29.851Z,8.25
2024-01-20T19:31:05.490Z,6.15
2024-01-20T19:36:20.696Z,6.60
2024-01-20T19:38:50.771Z,6.68
2024-01-20T19:41:34.887Z,5.47
2024-01-20T19:44:04.580Z,5.70
2024-01-20T19:46:40.550Z,7.35
2024-01-20T19:49:10.570Z,7.22
2024-01-20T19:51:41.412Z,6.43
2024-01-20T19:54:12.390Z,6.70
2024-01-20T19:56:53.417Z,6.68
2024-01-20T19:59:27.574Z,6.72
2024-01-20T20:02:01.230Z,5.95
2024-01-20T20:04:42.750Z,7.35
2024-01-20T20:07:16.664Z,6.15
2024-01-20T20:09:48.020Z,10.68
2024-01-20T20:12:28.706Z,6.70
2024-01-20T20:15:00.310Z,6.68
2024-01-20T20:17:32.782Z,9.15
2024-01-20T20:20:07.003Z,8.13
2024-01-20T20:22:38.961Z,6.88
2024-01-20T20:25:07.909Z,6.85
2024-01-20T20:27:49.447Z,6.65
2024-01-20T20:30:18.560Z,6.15
2024-01-20T20:32:53.490Z,4.43
2024-01-20T20:35:36.569Z,7.78
2024-01-20T20:40:50.474Z,5.28
2024-01-20T20:43:29.915Z,5.43
2024-01-20T20:46:11.542Z,5.18
2024-01-20T20:48:46.637Z,5.18
2024-01-20T20:51:16.042Z,7.20
2024-01-20T20:54:03.589Z,5.50
2024-01-20T20:56:34.916Z,6.25
2024-01-20T20:59:14.725Z,6.28
2024-01-20T21:01:47.053Z,5.40
2024-01-20T21:04:18.078Z,5.85
2024-01-20T21:06:49.172Z,6.78
2024-01-20T21:09:19.842Z,8.27
2024-01-20T21:11:49.573Z,6.50
2024-01-20T21:14:26.704Z,10.85
2024-01-20T21:16:56.692Z,6.60
2024-01-20T21:19:26.425Z,6.05
2024-01-20T21:21:54.193Z,5.88
2024-01-20T21:24:23.970Z,8.50
2024-01-20T21:27:01.027Z,4.88
2024-01-20T21:29:38.591Z,6.20
2024-01-20T21:32:10.669Z,5.78
2024-01-20T21:34:44.408Z,5.60
2024-01-20T21:37:12.908Z,6.15
2024-01-20T21:39:47.369Z,4.35
2024-01-20T21:42:26.885Z,4.97
2024-01-20T21:45:09.142Z,9.77
2024-01-20T21:47:39.542Z,8.35
2024-01-20T21:50:12.760Z,11.35
2024-01-20T21:52:51.469Z,6.03
2024-01-20T21:55:38.855Z,11.20
2024-01-20T21:58:10.137Z,6.47
2024-01-20T22:00:45.355Z,8.02
2024-01-20T22:03:14.709Z,5.00
2024-01-20T22:05:44.604Z,7.28
2024-01-20T22:08:17.556Z,7.85
2024-01-20T22:10:58.834Z,5.45
2024-01-20T22:13:33.494Z,3.75
2024-01-20T22:16:19.129Z,5.30
2024-01-20T22:18:47.545Z,4.80
2024-01-20T22:21:23.877Z,5.50
2024-01-20T22:23:55.263Z,10.63
2024-01-20T22:26:28.889Z,8.68
2024-01-20T22:29:01.298Z,5.15
2024-01-20T22:31:40.803Z,5.10
2024-01-20T22:34:13.035Z,8.82
2024-01-20T22:36:51.123Z,5.93
2024-01-20T22:42:18.612Z,4.68
2024-01-20T22:44:50.503Z,7.63
2024-01-20T22:47:23.968Z,4.20
2024-01-20T22:49:55.919Z,6.45
2024-01-20T22:52:27.749Z,5.68
2024-01-20T22:55:00.089Z,6.22
2024-01-20T22:57:31.723Z,7.55
2024-01-20T23:00:09.557Z,7.28
2024-01-20T23:02:42.307Z,6.10
2024-01-20T23:05:16.139Z,10.38
2024-01-20T23:07:48.047Z,5.10
2024-01-20T23:10:16.164Z,5.95
2024-01-20T23:12:48.791Z,7.50
2024-01-20T23:15:26.794Z,4.63
2024-01-20T23:18:01.663Z,7.07
2024-01-20T23:20:34.776Z,5.53
2024-01-20T23:23:05.454Z,7.30
2024-01-20T23:25:34.402Z,6.53
2024-01-20T23:28:05.768Z,5.00
2024-01-20T23:30:35.526Z,5.75
2024-01-20T23:33:19.290Z,5.40
2024-01-20T23:35:54.209Z,4.63
2024-01-20T23:38:27.724Z,13.40
2024-01-20T23:40:57.472Z,6.70
2024-01-20T23:43:28.889Z,6.07
2024-01-20T23:45:58.244Z,8.48
2024-01-20T23:48:35.627Z,8.13
2024-01-20T23:51:08.861Z,5.78
2024-01-20T23:53:38.192Z,5.68
2024-01-20T23:56:11.012Z,6.70
2024-01-20T23:58:48.179Z,6.90
